Time;durP1;ratioP1;P1;durP2;ratioP2;P2;SDS_P1;SDS_P2;PMS_P1;PMS_P2;Temp;Humidity;BMP_temperature;BMP_pressure;BME280_temperature;BME280_humidity;BME280_pressure;Samples;Min_cycle;Max_cycle;Signal;HPM_P1;HPM_P2
2022/12/16 00:01:08;;;;;;;40.47;20.67;;;-2.80;99.90;;;-3.11;71.50;100078.97;4981986;28;20230;-67
2022/12/16 00:03:38;;;;;;;45.67;21.80;;;-2.80;99.90;;;-3.15;71.35;100087.19;4990922;28;20204;-66
2022/12/16 00:06:09;;;;;;;40.60;21.50;;;-2.90;99.90;;;-3.20;72.57;100078.56;4987770;28;20204;-68
2022/12/16 00:08:40;;;;;;;44.87;22.50;;;-2.90;99.90;;;-3.22;71.89;100067.53;4985936;28;20246;-67
2022/12/16 00:11:09;;;;;;;42.03;21.63;;;-3.00;99.90;;;-3.29;71.56;100068.94;4987173;28;20235;-69
2022/12/16 00:13:40;;;;;;;40.37;21.50;;;-3.00;99.90;;;-3.29;72.21;100070.59;4990349;28;20915;-67
2022/12/16 00:16:12;;;;;;;42.37;21.93;;;-3.00;99.90;;;-3.28;72.22;100078.19;4991624;28;20254;-67
2022/12/16 00:18:41;;;;;;;46.47;22.13;;;-3.00;99.90;;;-3.29;71.92;100083.19;4989164;28;20407;-69
2022/12/16 00:21:11;;;;;;;38.47;21.77;;;-3.10;99.90;;;-3.30;72.24;100086.50;4989273;28;20669;-66
2022/12/16 00:23:40;;;;;;;43.93;21.00;;;-3.10;99.90;;;-3.32;72.56;100083.03;4990919;28;20685;-69
2022/12/16 00:26:09;;;;;;;38.13;19.83;;;-3.00;99.90;;;-3.35;72.48;100082.91;4990415;28;20224;-66
2022/12/16 00:28:38;;;;;;;43.53;21.73;;;-3.10;99.90;;;-3.40;72.40;100078.53;4991470;28;20350;-66
2022/12/16 00:31:07;;;;;;;43.77;20.47;;;-3.10;99.90;;;-3.46;72.27;100074.88;4989557;28;20239;-67
2022/12/16 00:33:36;;;;;;;38.00;18.47;;;-3.20;99.90;;;-3.48;72.40;100079.00;4991064;28;20303;-66
2022/12/16 00:36:05;;;;;;;36.93;20.67;;;-3.20;99.90;;;-3.53;72.42;100078.78;4984854;28;20258;-66
2022/12/16 00:38:35;;;;;;;44.00;22.33;;;-3.20;99.90;;;-3.55;72.56;100080.38;4989390;28;20212;-66
2022/12/16 00:41:03;;;;;;;44.40;21.87;;;-3.30;99.90;;;-3.57;72.89;100094.56;4989653;28;20227;-65
2022/12/16 00:43:32;;;;;;;41.27;21.63;;;-3.30;99.90;;;-3.58;73.27;100086.91;4990154;28;20547;-66
2022/12/16 00:46:01;;;;;;;41.07;22.37;;;-3.30;99.90;;;-3.59;73.06;100085.19;4985024;28;20236;-66
2022/12/16 00:48:29;;;;;;;38.33;20.40;;;-3.30;99.90;;;-3.58;73.42;100082.75;4989050;28;20210;-66
2022/12/16 00:50:58;;;;;;;41.43;21.17;;;-3.30;99.90;;;-3.59;73.07;100095.28;4989863;28;20215;-65
2022/12/16 00:53:26;;;;;;;41.73;21.87;;;-3.30;99.90;;;-3.65;73.02;100088.28;4989327;28;20713;-65
2022/12/16 00:56:04;;;;;;;41.37;19.90;;;-3.30;99.90;;;-3.71;73.48;100083.00;4989187;28;20640;-66
2022/12/16 00:58:32;;;;;;;42.60;21.97;;;-3.40;99.90;;;-3.74;73.22;100086.22;4990747;28;20196;-66
2022/12/16 01:01:01;;;;;;;39.50;21.77;;;-3.40;99.90;;;-3.74;73.40;100078.66;4989143;28;20685;-68
2022/12/16 01:03:30;;;;;;;41.47;21.23;;;-3.40;99.90;;;-3.75;73.65;100076.94;4977309;28;20657;-65
2022/12/16 01:05:58;;;;;;;40.20;20.03;;;-3.40;99.90;;;-3.77;73.83;100065.94;4987387;28;20630;-65
2022/12/16 01:08:27;;;;;;;38.57;21.37;;;-3.40;99.90;;;-3.76;73.83;100074.34;4985361;28;20258;-66
2022/12/16 01:10:57;;;;;;;42.00;20.30;;;-3.40;99.90;;;-3.78;73.91;100079.31;4989867;28;20672;-67
2022/12/16 01:13:27;;;;;;;38.63;20.53;;;-3.50;99.90;;;-3.78;74.00;100086.00;4989339;28;20255;-65
2022/12/16 01:15:59;;;;;;;37.80;20.00;;;-3.50;99.90;;;-3.80;74.28;100085.06;4989431;28;20312;-66
2022/12/16 01:18:27;;;;;;;38.53;19.37;;;-3.50;99.90;;;-3.82;73.98;100090.03;4984629;28;20251;-67
2022/12/16 01:21:03;;;;;;;40.63;20.40;;;-3.50;99.90;;;-3.83;74.05;100093.31;4987775;28;20619;-68
2022/12/16 01:23:32;;;;;;;38.63;20.30;;;-3.50;99.90;;;-3.85;73.74;100084.88;4990744;28;20262;-66
2022/12/16 01:26:02;;;;;;;42.27;21.10;;;-3.50;99.90;;;-3.86;73.94;100087.31;4981973;28;20207;-66
2022/12/16 01:28:31;;;;;;;39.73;21.67;;;-3.50;99.90;;;-3.82;74.17;100090.03;4989052;28;20350;-65
2022/12/16 01:31:01;;;;;;;44.43;21.63;;;-3.50;99.90;;;-3.80;73.96;100090.97;4989956;28;20286;-64
2022/12/16 01:33:31;;;;;;;42.13;19.47;;;-3.50;99.90;;;-3.76;73.91;100090.31;4988605;28;20212;-66
2022/12/16 01:36:01;;;;;;;38.97;19.53;;;-3.50;99.90;;;-3.75;73.56;100086.16;4988651;28;20208;-67
2022/12/16 01:38:30;;;;;;;41.00;20.30;;;-3.50;99.90;;;-3.76;74.00;100076.84;4985386;28;20205;-66
2022/12/16 01:40:59;;;;;;;41.67;20.63;;;-3.50;99.90;;;-3.79;73.72;100067.53;4989735;28;20819;-63
2022/12/16 01:43:33;;;;;;;37.93;19.83;;;-3.50;99.90;;;-3.80;74.10;100068.31;4989426;28;20585;-67
2022/12/16 01:46:07;;;;;;;41.67;20.50;;;-3.50;99.90;;;-3.82;74.04;100056.47;4988723;28;20226;-64
2022/12/16 01:48:45;;;;;;;44.07;21.13;;;-3.50;99.90;;;-3.84;74.28;100045.44;4990441;28;20649;-66
2022/12/16 01:51:20;;;;;;;46.30;21.83;;;-3.50;99.90;;;-3.86;74.14;100034.47;4989593;28;20285;-66
2022/12/16 01:53:52;;;;;;;46.50;20.87;;;-3.50;99.90;;;-3.90;74.25;100029.28;4976766;28;20340;-66
2022/12/16 01:56:27;;;;;;;42.40;21.00;;;-3.50;99.90;;;-3.91;74.44;100040.13;4989103;28;20200;-67
2022/12/16 01:58:58;;;;;;;41.10;21.40;;;-3.60;99.90;;;-3.94;74.31;100044.16;4976259;28;20235;-66
2022/12/16 02:01:26;;;;;;;44.23;21.23;;;-3.60;99.90;;;-3.94;74.52;100051.69;4989039;28;20263;-68
2022/12/16 02:04:00;;;;;;;51.13;23.53;;;-3.60;99.90;;;-3.98;74.71;100043.16;4978026;28;20226;-64
2022/12/16 02:06:29;;;;;;;41.90;20.73;;;-3.60;99.90;;;-3.99;74.56;100036.41;4983167;28;20328;-65
2022/12/16 02:09:02;;;;;;;51.03;23.67;;;-3.60;99.90;;;-4.00;74.83;100039.72;4988162;28;20627;-65
2022/12/16 02:12:18;;;;;;;45.43;22.97;;;-3.70;99.90;;;-4.04;74.65;100032.81;4982654;28;20204;-68
2022/12/16 02:15:14;;;;;;;48.63;23.00;;;-3.70;99.90;;;-4.05;75.34;100038.66;4987473;28;20239;-65
2022/12/16 02:17:53;;;;;;;44.70;23.60;;;-3.70;99.90;;;-4.02;75.10;100032.88;4976897;28;20690;-67
2022/12/16 02:21:18;;;;;;;44.70;22.50;;;-3.70;99.90;;;-4.00;75.44;100022.09;4988412;28;20200;-64
2022/12/16 02:24:28;;;;;;;49.20;22.40;;;-3.70;99.90;;;-3.98;75.14;100025.53;4975959;28;20279;-65
2022/12/16 02:27:53;;;;;;;47.47;22.50;;;-3.60;99.90;;;-3.97;75.33;100028.94;4989346;28;20207;-70
2022/12/16 02:30:42;;;;;;;45.87;21.67;;;-3.60;99.90;;;-3.94;75.11;100041.63;4926664;29;20218;-65
2022/12/16 02:33:33;;;;;;;43.57;21.50;;;-3.60;99.90;;;-3.91;75.21;100035.09;4980183;28;20310;-66
2022/12/16 02:36:13;;;;;;;43.00;21.93;;;-3.60;99.90;;;-3.90;75.14;100019.22;4986165;28;20307;-65
2022/12/16 02:38:49;;;;;;;40.90;20.70;;;-3.60;99.90;;;-3.90;74.80;100009.16;4989918;28;20243;-66
2022/12/16 02:41:33;;;;;;;42.40;20.73;;;-3.60;99.90;;;-3.93;74.85;100019.06;4986302;28;20231;-67
2022/12/16 02:44:06;;;;;;;44.63;20.17;;;-3.60;99.90;;;-3.95;74.94;100022.31;4985569;28;20278;-67
2022/12/16 02:46:42;;;;;;;46.80;21.27;;;-3.60;99.90;;;-3.98;74.86;100017.13;4980243;28;20202;-66
2022/12/16 02:49:47;;;;;;;51.40;22.63;;;-3.70;99.90;;;-4.02;75.00;100011.09;4988769;28;20653;-66
2022/12/16 02:52:17;;;;;;;50.37;21.73;;;-3.70;99.90;;;-4.02;74.93;100008.56;4988076;28;20207;-64
2022/12/16 02:54:47;;;;;;;43.80;22.27;;;-3.70;99.90;;;-4.07;74.90;100007.50;4988802;28;20251;-73
2022/12/16 02:57:50;;;;;;;41.67;21.13;;;-3.70;99.90;;;-4.10;74.70;99993.94;4976761;28;20247;-75
2022/12/16 03:00:21;;;;;;;46.13;22.03;;;-3.80;99.90;;;-4.13;74.93;99997.16;4987816;28;20608;-75
2022/12/16 03:02:58;;;;;;;40.23;21.37;;;-3.80;99.90;;;-4.16;75.16;99991.97;4983132;28;20240;-75
2022/12/16 03:05:31;;;;;;;43.33;20.60;;;-3.80;99.90;;;-4.13;75.31;99987.09;4990572;28;20203;-73
2022/12/16 03:08:05;;;;;;;54.00;20.53;;;-3.80;99.90;;;-4.14;75.48;99983.72;4993482;28;20339;-75
2022/12/16 03:10:41;;;;;;;48.63;22.03;;;-3.80;99.90;;;-4.15;75.28;99981.16;4991437;28;20651;-75
2022/12/16 03:13:11;;;;;;;42.97;19.90;;;-3.70;99.90;;;-4.16;75.23;99969.34;4991774;28;20246;-73
2022/12/16 03:15:41;;;;;;;39.57;19.93;;;-3.80;99.90;;;-4.20;75.61;99975.91;4990317;28;20271;-73
2022/12/16 03:18:13;;;;;;;41.27;19.70;;;-3.90;99.90;;;-4.18;75.41;99988.53;4992203;28;20762;-76
2022/12/16 03:20:47;;;;;;;42.70;20.67;;;-3.90;99.90;;;-4.19;75.79;99981.78;4986400;28;20236;-75
2022/12/16 03:23:20;;;;;;;40.03;20.20;;;-3.90;99.90;;;-4.19;75.76;99971.72;4991997;28;20716;-74
2022/12/16 03:25:54;;;;;;;42.40;20.40;;;-3.90;99.90;;;-4.15;75.93;99968.56;4988395;28;20200;-75
2022/12/16 03:28:36;;;;;;;40.70;20.37;;;-3.80;99.90;;;-4.13;75.65;99977.03;4984149;28;20204;-73
2022/12/16 03:31:16;;;;;;;42.67;20.40;;;-3.80;99.90;;;-4.15;75.64;99979.50;4992199;28;20631;-75
2022/12/16 03:33:51;;;;;;;39.73;19.60;;;-3.80;99.90;;;-4.14;75.35;99976.16;4992114;28;20291;-72
2022/12/16 03:36:26;;;;;;;41.33;19.03;;;-3.80;99.90;;;-4.15;75.31;99981.16;4990075;28;20291;-75
2022/12/16 03:38:56;;;;;;;42.80;21.27;;;-3.80;99.90;;;-4.14;75.46;99977.81;4992148;28;20301;-73
2022/12/16 03:41:24;;;;;;;39.87;20.40;;;-3.80;99.90;;;-4.14;75.37;99965.25;4978859;28;20295;-74
2022/12/16 03:43:53;;;;;;;43.57;20.83;;;-3.80;99.90;;;-4.15;75.71;99961.03;4979734;28;20635;-76
2022/12/16 03:46:21;;;;;;;39.57;19.03;;;-3.80;99.90;;;-4.16;75.26;99951.72;4989930;28;20303;-73
2022/12/16 03:48:52;;;;;;;39.87;19.33;;;-3.80;99.90;;;-4.15;75.44;99953.47;4991882;28;20216;-74
2022/12/16 03:51:20;;;;;;;46.03;20.80;;;-3.80;99.90;;;-4.15;75.59;99950.97;4985724;28;20651;-74
2022/12/16 03:53:49;;;;;;;43.20;21.50;;;-3.90;99.90;;;-4.16;75.50;99939.16;4985787;28;20299;-72
2022/12/16 03:56:17;;;;;;;40.70;20.63;;;-3.80;99.90;;;-4.16;75.79;99932.50;4984142;28;20666;-74
2022/12/16 03:58:45;;;;;;;37.90;20.00;;;-3.80;99.90;;;-4.18;75.73;99923.13;4990662;28;20274;-73
2022/12/16 04:01:14;;;;;;;45.97;21.20;;;-3.80;99.90;;;-4.16;75.52;99929.97;4991678;28;20231;-75
2022/12/16 04:03:43;;;;;;;41.33;20.40;;;-3.80;99.90;;;-4.15;75.38;99934.19;4989866;28;20266;-76
2022/12/16 04:06:17;;;;;;;44.43;20.57;;;-3.80;99.90;;;-4.16;75.25;99937.53;4991888;28;20215;-75
2022/12/16 04:08:46;;;;;;;39.07;19.77;;;-3.80;99.90;;;-4.22;75.05;99927.16;4992035;28;20377;-75
2022/12/16 04:25:20;;;;;;;38.53;19.83;;;-3.90;99.90;;;-4.22;75.59;99933.84;4982352;28;20673;-75
2022/12/16 04:27:49;;;;;;;44.43;21.60;;;-3.90;99.90;;;-4.20;75.90;99934.78;4988196;28;20200;-75
2022/12/16 04:30:19;;;;;;;43.30;21.57;;;-3.90;99.90;;;-4.23;75.58;99932.16;4989798;28;20243;-75
